createdAt,value
2023-04-28T00:00:02.679Z,97196.84
2023-04-28T00:02:30.583Z,97203.22
2023-04-28T00:04:59.218Z,97190.97
2023-04-28T00:07:28.467Z,97188.19
2023-04-28T00:09:57.128Z,97186.38
2023-04-28T00:12:24.965Z,97182.69
2023-04-28T00:14:52.866Z,97183.53
2023-04-28T00:17:20.640Z,97182.91
2023-04-28T00:19:49.532Z,97174.28
2023-04-28T00:22:17.290Z,97184.72
2023-04-28T00:24:46.414Z,97182.31
2023-04-28T00:27:14.240Z,97173.44
2023-04-28T00:29:42.026Z,97167.31
2023-04-28T00:32:10.480Z,97161.56
2023-04-28T00:34:38.413Z,97166.75
2023-04-28T00:37:06.234Z,97161.47
2023-04-28T00:39:33.992Z,97159.03
2023-04-28T00:42:04.231Z,97159.28
2023-04-28T00:44:32.090Z,97155.19
2023-04-28T00:47:00.188Z,97110.03
2023-04-28T00:49:28.040Z,97145.53
2023-04-28T00:51:55.878Z,97134.97
2023-04-28T00:54:23.732Z,97139.75
2023-04-28T00:56:51.793Z,97137.81
2023-04-28T00:59:20.946Z,97136.69
2023-04-28T01:01:49.052Z,97129.25
2023-04-28T01:04:17.443Z,97126.34
2023-04-28T01:06:45.800Z,97124.25
2023-04-28T01:09:13.689Z,97106.00
2023-04-28T01:11:41.430Z,97105.59
2023-04-28T01:14:09.325Z,97103.31
2023-04-28T01:16:39.834Z,97114.19
2023-04-28T01:19:08.850Z,97119.78
2023-04-28T01:21:36.611Z,97113.28
2023-04-28T01:24:07.267Z,97108.25
2023-04-28T01:26:35.132Z,97099.81
2023-04-28T01:29:02.877Z,97098.97
2023-04-28T01:31:31.731Z,97100.28
2023-04-28T01:33:59.724Z,97103.84
2023-04-28T01:36:28.501Z,97102.16
2023-04-28T01:38:56.521Z,97103.84
2023-04-28T01:41:25.677Z,97101.22
2023-04-28T01:43:53.439Z,97101.22
2023-04-28T01:46:21.301Z,97093.75
2023-04-28T01:48:49.399Z,97090.38
2023-04-28T01:51:17.116Z,97093.38
2023-04-28T01:53:44.894Z,97084.88
2023-04-28T01:56:12.593Z,97097.06
2023-04-28T01:58:41.688Z,97095.16
2023-04-28T02:01:09.489Z,97087.50
2023-04-28T02:03:37.434Z,97095.41
2023-04-28T02:06:05.907Z,97098.03
2023-04-28T02:08:33.680Z,97098.03
2023-04-28T02:11:01.811Z,97094.75
2023-04-28T02:13:29.579Z,97094.00
2023-04-28T02:16:01.807Z,97087.94
2023-04-28T02:18:29.854Z,97088.03
2023-04-28T02:20:57.686Z,97078.66
2023-04-28T02:23:25.656Z,97081.44
2023-04-28T02:26:01.953Z,97085.84
2023-04-28T02:28:30.038Z,97071.19
2023-04-28T02:31:06.506Z,97068.69
2023-04-28T02:33:34.368Z,97074.16
2023-04-28T02:36:02.338Z,97066.25
2023-04-28T02:38:30.161Z,97073.19
2023-04-28T02:41:01.392Z,97058.56
2023-04-28T02:43:29.636Z,97043.00
2023-04-28T02:45:57.556Z,97044.44
2023-04-28T02:48:27.029Z,97041.91
2023-04-28T02:50:55.028Z,97041.22
2023-04-28T02:53:23.921Z,97008.94
2023-04-28T02:55:51.737Z,97041.41
2023-04-28T02:58:19.527Z,97040.38
2023-04-28T03:00:47.758Z,97029.84
2023-04-28T03:03:15.785Z,97034.03
2023-04-28T03:05:45.102Z,97027.91
2023-04-28T03:08:12.872Z,97021.84
2023-04-28T03:10:40.762Z,97031.28
2023-04-28T03:13:08.581Z,97028.25
2023-04-28T03:15:36.459Z,97026.25
2023-04-28T03:18:04.321Z,97029.81
2023-04-28T03:20:32.144Z,97010.03
2023-04-28T03:23:01.970Z,97005.81
2023-04-28T03:25:29.730Z,97005.22
2023-04-28T03:27:57.565Z,97010.34
2023-04-28T03:30:25.329Z,96999.72
2023-04-28T03:32:53.338Z,96988.34
2023-04-28T03:35:21.658Z,96972.38
2023-04-28T03:37:49.674Z,96982.47
2023-04-28T03:40:19.205Z,96984.16
2023-04-28T03:42:46.940Z,96975.97
2023-04-28T03:45:14.698Z,96993.19
2023-04-28T03:47:42.417Z,96985.31
2023-04-28T03:50:10.677Z,96975.97
2023-04-28T03:52:38.825Z,96982.22
2023-04-28T03:55:07.393Z,96975.28
2023-04-28T03:57:36.498Z,96971.22
2023-04-28T04:00:04.763Z,96974.03
2023-04-28T04:02:32.742Z,96970.91
2023-04-28T04:05:00.778Z,96966.59
2023-04-28T04:07:28.673Z,96957.47
2023-04-28T04:09:56.419Z,96964.75
2023-04-28T04:12:24.251Z,96963.41
2023-04-28T04:14:53.370Z,96958.34
2023-04-28T04:17:21.214Z,96957.63
2023-04-28T04:19:49.116Z,96960.38
2023-04-28T04:22:16.950Z,96964.41
2023-04-28T04:24:44.777Z,96956.50
2023-04-28T04:27:12.670Z,96958.28
2023-04-28T04:29:40.524Z,96963.66
2023-04-28T04:32:09.698Z,96956.59
2023-04-28T04:34:37.445Z,96954.47
2023-04-28T04:37:05.212Z,96950.59
2023-04-28T04:39:33.175Z,96954.41
2023-04-28T04:42:10.210Z,96958.31
2023-04-28T04:44:44.951Z,96960.09
2023-04-28T04:47:14.072Z,96959.56
2023-04-28T04:49:41.836Z,96956.66
2023-04-28T04:52:09.582Z,96966.63
2023-04-28T04:54:37.375Z,96965.19
2023-04-28T04:57:05.216Z,96971.19
2023-04-28T04:59:33.054Z,96971.19
2023-04-28T05:02:01.102Z,96958.66
2023-04-28T05:04:30.343Z,96966.31
2023-04-28T05:06:58.230Z,96974.44
2023-04-28T05:09:25.954Z,96971.91
2023-04-28T05:11:53.734Z,96969.28
2023-04-28T05:14:21.599Z,96967.28
2023-04-28T05:16:49.424Z,96969.72
2023-04-28T05:19:17.503Z,96970.22
2023-04-28T05:21:48.025Z,96975.47
2023-04-28T05:24:16.217Z,96970.97
2023-04-28T05:26:44.146Z,96931.78
2023-04-28T05:29:11.962Z,96962.78
2023-04-28T05:31:39.820Z,96978.00
2023-04-28T05:34:07.615Z,96974.63
2023-04-28T05:36:35.367Z,96979.06
2023-04-28T05:39:04.557Z,96974.03
2023-04-28T05:41:32.348Z,96984.63
2023-04-28T05:44:00.154Z,96975.81
2023-04-28T05:46:31.003Z,96961.69
2023-04-28T05:48:59.353Z,96967.69
2023-04-28T05:51:27.236Z,96971.28
2023-04-28T05:53:55.027Z,96970.66
2023-04-28T05:56:24.224Z,96964.56
2023-04-28T05:58:52.099Z,96972.00
2023-04-28T06:01:20.045Z,96967.94
2023-04-28T06:03:47.995Z,96962.88
2023-04-28T06:06:15.984Z,96961.09
2023-04-28T06:08:44.393Z,96957.63
2023-04-28T06:11:12.299Z,96957.00
2023-04-28T06:13:41.463Z,96963.72
2023-04-28T06:16:09.648Z,96957.09
2023-04-28T06:18:37.385Z,96964.56
2023-04-28T06:21:05.160Z,96960.97
2023-04-28T06:23:32.857Z,96966.66
2023-04-28T06:26:00.674Z,96973.41
2023-04-28T06:28:28.459Z,96966.03
2023-04-28T06:30:57.677Z,96928.84
2023-04-28T06:33:25.491Z,96973.41
2023-04-28T06:35:53.429Z,96976.31
2023-04-28T06:38:21.263Z,96976.00
2023-04-28T06:40:49.015Z,96971.72
2023-04-28T06:43:16.839Z,96970.03
2023-04-28T06:45:44.587Z,96966.66
2023-04-28T06:48:13.776Z,96959.53
2023-04-28T06:50:43.617Z,96952.34
2023-04-28T06:53:11.820Z,96958.34
2023-04-28T06:55:39.757Z,96963.59
2023-04-28T06:58:07.478Z,96947.31
2023-04-28T07:00:35.598Z,96933.00
2023-04-28T07:03:03.504Z,96943.63
2023-04-28T07:05:33.723Z,96947.31
2023-04-28T07:08:01.490Z,96954.16
2023-04-28T07:10:29.255Z,96937.84
2023-04-28T07:12:57.108Z,96945.59
2023-04-28T07:15:25.039Z,96936.16
2023-04-28T07:17:52.823Z,96941.28
2023-04-28T07:20:20.841Z,96946.84
2023-04-28T07:22:50.009Z,96938.47
2023-04-28T07:25:17.899Z,96947.38
2023-04-28T07:27:47.049Z,96953.81
2023-04-28T07:30:26.781Z,96946.38
2023-04-28T07:32:56.200Z,96953.50
2023-04-28T07:35:24.150Z,96958.34
2023-04-28T07:37:53.982Z,96955.53
2023-04-28T07:40:22.297Z,96946.56
2023-04-28T07:42:50.244Z,96948.34
2023-04-28T07:45:18.145Z,96946.66
2023-04-28T07:47:45.988Z,96949.19
2023-04-28T07:50:13.891Z,96954.66
2023-04-28T07:52:41.755Z,96958.56
2023-04-28T07:55:11.168Z,96971.72
2023-04-28T07:57:42.964Z,96973.81
2023-04-28T08:00:12.171Z,96975.28
2023-04-28T08:02:40.248Z,96964.66
2023-04-28T08:05:09.829Z,96980.13
2023-04-28T08:07:38.421Z,96979.03
2023-04-28T08:10:07.058Z,96982.00
2023-04-28T08:12:36.281Z,96976.63
2023-04-28T08:15:05.086Z,96979.06
2023-04-28T08:17:32.853Z,96979.78
2023-04-28T08:20:00.647Z,96976.63
2023-04-28T08:22:28.390Z,96977.81
2023-04-28T08:24:56.252Z,96988.72
2023-04-28T08:27:25.688Z,96985.16
2023-04-28T08:29:54.816Z,96981.78
2023-04-28T08:32:22.682Z,96979.75
2023-04-28T08:34:50.501Z,96988.66
2023-04-28T08:37:18.515Z,96982.44
2023-04-28T08:39:46.467Z,96984.84
2023-04-28T08:42:14.784Z,96988.53
2023-04-28T08:44:42.515Z,96981.44
2023-04-28T08:47:13.959Z,96984.34
2023-04-28T08:49:42.438Z,96985.50
2023-04-28T08:52:14.249Z,96991.13
2023-04-28T08:54:42.165Z,96994.63
2023-04-28T08:57:10.737Z,96992.28
2023-04-28T08:59:42.087Z,96986.19
2023-04-28T09:02:11.752Z,96993.41
2023-04-28T09:04:39.880Z,96985.13
2023-04-28T09:07:12.325Z,96987.88
2023-04-28T09:09:40.928Z,96990.72
2023-04-28T09:12:09.192Z,96990.81
2023-04-28T09:14:37.956Z,96989.38
2023-04-28T09:17:13.324Z,96978.16
2023-04-28T09:19:43.058Z,96985.25
2023-04-28T09:22:25.322Z,96991.41
2023-04-28T09:24:55.401Z,96987.09
2023-04-28T09:27:28.071Z,96986.97
2023-04-28T09:29:55.891Z,97000.31
2023-04-28T09:32:27.794Z,96989.59
2023-04-28T09:34:57.593Z,96996.31
2023-04-28T09:37:30.800Z,96996.72
2023-04-28T09:39:59.607Z,96979.06
2023-04-28T09:42:35.287Z,96990.13
2023-04-28T09:45:04.051Z,96982.53
2023-04-28T09:47:35.031Z,96983.13
2023-04-28T09:50:03.946Z,96983.50
2023-04-28T09:52:31.765Z,96988.41
2023-04-28T09:54:59.679Z,96983.75
2023-04-28T09:57:28.659Z,96992.25
2023-04-28T09:59:56.728Z,97000.53
2023-04-28T10:02:42.591Z,96995.41
2023-04-28T10:05:13.899Z,96988.66
2023-04-28T10:07:42.138Z,96984.59
2023-04-28T10:10:10.468Z,96985.59
2023-04-28T10:12:39.077Z,96982.69
2023-04-28T10:15:08.900Z,96983.16
2023-04-28T10:17:37.257Z,96978.25
2023-04-28T10:20:06.614Z,96988.38
2023-04-28T10:22:53.495Z,96988.53
2023-04-28T10:25:28.167Z,96985.50
2023-04-28T10:27:55.885Z,96991.25
2023-04-28T10:30:28.204Z,96988.31
2023-04-28T10:33:27.464Z,96980.34
2023-04-28T10:35:55.672Z,96990.06
2023-04-28T10:38:24.943Z,96987.50
2023-04-28T10:40:53.871Z,96993.88
2023-04-28T10:43:37.667Z,96991.84
2023-04-28T10:46:07.331Z,96990.00
2023-04-28T10:48:56.472Z,96990.91
2023-04-28T10:51:34.248Z,97001.84
2023-04-28T10:54:16.579Z,96998.28
2023-04-28T10:57:20.869Z,96989.75
2023-04-28T10:59:52.346Z,96982.56
2023-04-28T11:02:47.150Z,96986.47
2023-04-28T11:05:16.410Z,96980.00
2023-04-28T11:08:29.049Z,96973.41
2023-04-28T11:11:31.292Z,96965.66
2023-04-28T11:14:32.669Z,96962.88
2023-04-28T11:17:02.883Z,96975.81
2023-04-28T11:19:33.152Z,96967.75
2023-04-28T11:22:02.135Z,96963.47
2023-04-28T11:24:31.063Z,96958.94
2023-04-28T11:27:00.614Z,96950.97
2023-04-28T11:29:36.253Z,96961.34
2023-04-28T11:32:04.391Z,96964.25
2023-04-28T11:34:32.718Z,96949.59
2023-04-28T11:37:00.866Z,96968.59
2023-04-28T11:39:29.957Z,96971.88
2023-04-28T11:42:00.550Z,96952.63
2023-04-28T11:44:30.098Z,96963.88
2023-04-28T11:47:01.587Z,96973.66
2023-04-28T11:49:30.506Z,96973.81
2023-04-28T11:52:00.444Z,96968.00
2023-04-28T11:54:29.367Z,96963.28
2023-04-28T11:57:01.169Z,96960.25
2023-04-28T11:59:30.873Z,96960.34
2023-04-28T12:02:00.864Z,96964.69
2023-04-28T12:04:33.113Z,96954.63
2023-04-28T12:07:07.885Z,96966.34
2023-04-28T12:09:36.343Z,96955.88
2023-04-28T12:12:06.998Z,96956.59
2023-04-28T12:14:54.862Z,96947.81
2023-04-28T12:17:26.768Z,96950.25
2023-04-28T12:19:54.681Z,96955.16
2023-04-28T12:22:22.738Z,96957.00
2023-04-28T12:25:04.642Z,96967.53
2023-04-28T12:27:33.743Z,96970.09
2023-04-28T12:30:01.504Z,96965.59
2023-04-28T12:32:39.706Z,96962.28
2023-04-28T12:35:08.633Z,96954.25
2023-04-28T12:37:38.360Z,96962.06
2023-04-28T12:40:07.240Z,96937.66
2023-04-28T12:42:36.603Z,96966.56
2023-04-28T12:45:04.852Z,96969.31
2023-04-28T12:47:33.323Z,96962.81
2023-04-28T12:50:01.421Z,96950.97
2023-04-28T12:52:29.577Z,96956.56
2023-04-28T12:54:57.478Z,96951.47
2023-04-28T12:57:25.281Z,96948.31
2023-04-28T12:59:56.118Z,96943.19
2023-04-28T13:02:24.063Z,96933.28
2023-04-28T13:04:53.051Z,96958.25
2023-04-28T13:07:22.022Z,96963.84
2023-04-28T13:09:49.782Z,96955.31
2023-04-28T13:12:17.526Z,96945.00
2023-04-28T13:14:45.286Z,96960.84
2023-04-28T13:17:14.434Z,96958.06
2023-04-28T13:19:42.323Z,96947.47
2023-04-28T13:22:10.377Z,96949.66
2023-04-28T13:24:38.096Z,96950.22
2023-04-28T13:27:09.759Z,96951.47
2023-04-28T13:29:38.038Z,96959.50
2023-04-28T13:32:06.353Z,96948.19
2023-04-28T13:34:35.822Z,96940.66
2023-04-28T13:37:03.580Z,96934.06
2023-04-28T13:39:31.320Z,96941.16
2023-04-28T13:41:59.114Z,96937.25
2023-04-28T13:44:26.953Z,96936.69
2023-04-28T13:46:54.725Z,96918.59
2023-04-28T13:49:23.782Z,96915.56
2023-04-28T13:51:52.890Z,96903.91
2023-04-28T13:54:21.308Z,96896.94
2023-04-28T13:56:49.451Z,96891.78
2023-04-28T13:59:17.299Z,96900.84
2023-04-28T14:01:45.469Z,96902.53
2023-04-28T14:04:13.373Z,96903.53
2023-04-28T14:06:42.327Z,96889.00
2023-04-28T14:09:11.668Z,96898.34
2023-04-28T14:11:39.479Z,96906.47
2023-04-28T14:14:07.170Z,96899.91
2023-04-28T14:16:34.963Z,96906.22
2023-04-28T14:19:02.806Z,96901.19
2023-04-28T14:21:31.202Z,96892.13
2023-04-28T14:23:59.036Z,96890.84
2023-04-28T14:26:28.485Z,96885.81
2023-04-28T14:28:56.348Z,96872.03
2023-04-28T14:31:24.924Z,96883.94
2023-04-28T14:33:52.686Z,96884.03
2023-04-28T14:36:20.679Z,96886.88
2023-04-28T14:38:48.557Z,96873.59
2023-04-28T14:41:16.347Z,96867.97
2023-04-28T14:43:46.207Z,96860.94
2023-04-28T14:46:14.018Z,96860.38
2023-04-28T14:48:41.752Z,96853.97
2023-04-28T14:51:09.691Z,96845.78
2023-04-28T14:53:37.462Z,96855.22
2023-04-28T14:56:17.826Z,96853.75
2023-04-28T14:58:48.555Z,96873.38
2023-04-28T15:01:16.697Z,96881.50
2023-04-28T15:03:44.640Z,96893.31
2023-04-28T15:06:13.375Z,96891.38
2023-04-28T15:08:41.316Z,96897.03
2023-04-28T15:11:09.267Z,96882.34
2023-04-28T15:13:37.634Z,96879.44
2023-04-28T15:16:07.567Z,96867.00
2023-04-28T15:18:36.477Z,96864.50
2023-04-28T15:21:04.351Z,96853.19
2023-04-28T15:23:32.096Z,96871.22
2023-04-28T15:25:59.867Z,96871.22
2023-04-28T15:28:28.172Z,96862.13
2023-04-28T15:30:56.197Z,96871.34
2023-04-28T15:33:25.388Z,96876.91
2023-04-28T15:35:53.161Z,96873.16
2023-04-28T15:38:21.120Z,96864.09
2023-04-28T15:40:49.790Z,96858.63
2023-04-28T15:43:17.623Z,96855.13
2023-04-28T15:45:46.994Z,96859.16
2023-04-28T15:48:15.442Z,96832.22
2023-04-28T15:50:44.754Z,96848.53
2023-04-28T15:53:12.530Z,96880.53
2023-04-28T15:55:40.266Z,96869.28
2023-04-28T15:58:09.427Z,96858.78
2023-04-28T16:00:37.291Z,96863.84
2023-04-28T16:03:06.122Z,96872.22
2023-04-28T16:05:33.980Z,96886.75
2023-04-28T16:08:03.093Z,96893.50
2023-04-28T16:10:31.169Z,96903.84
2023-04-28T16:12:59.013Z,96907.75
2023-04-28T16:15:26.826Z,96898.56
2023-04-28T16:17:56.931Z,96852.81
2023-04-28T16:20:24.924Z,96832.25
2023-04-28T16:22:53.411Z,96833.63
2023-04-28T16:25:23.803Z,96837.56
2023-04-28T16:27:51.911Z,96848.16
2023-04-28T16:30:19.978Z,96855.91
2023-04-28T16:32:47.868Z,96856.63
2023-04-28T16:35:16.037Z,96859.69
2023-04-28T16:37:44.161Z,96878.47
2023-04-28T16:40:13.238Z,96868.66
2023-04-28T16:42:43.569Z,96877.53
2023-04-28T16:45:12.076Z,96869.94
2023-04-28T16:47:42.371Z,96866.78
2023-04-28T16:50:11.442Z,96862.97
2023-04-28T16:52:39.214Z,96850.66
2023-04-28T16:55:08.175Z,96855.44
2023-04-28T16:57:36.182Z,96847.94
2023-04-28T17:00:06.206Z,96849.53
2023-04-28T17:02:34.595Z,96849.25
2023-04-28T17:05:02.506Z,96849.16
2023-04-28T17:07:30.276Z,96835.00
2023-04-28T17:09:58.157Z,96837.38
2023-04-28T17:12:25.930Z,96841.56
2023-04-28T17:14:54.626Z,96841.75
2023-04-28T17:17:23.863Z,96839.44
2023-04-28T17:19:51.840Z,96842.25
2023-04-28T17:22:20.490Z,96835.75
2023-04-28T17:24:48.276Z,96842.00
2023-04-28T17:27:16.217Z,96842.19
2023-04-28T17:29:44.313Z,96844.34
2023-04-28T17:32:12.177Z,96847.75
2023-04-28T17:34:41.649Z,96855.38
2023-04-28T17:37:09.447Z,96859.13
2023-04-28T17:39:37.208Z,96868.75
2023-04-28T17:42:05.268Z,96859.63
2023-04-28T17:44:33.052Z,96862.22
2023-04-28T17:47:01.302Z,96860.59
2023-04-28T17:49:29.253Z,96862.41
2023-04-28T17:51:58.391Z,96864.53
2023-04-28T17:54:26.168Z,96867.94
2023-04-28T17:56:54.784Z,96868.53
2023-04-28T17:59:22.619Z,96865.19
2023-04-28T18:01:50.470Z,96872.75
2023-04-28T18:04:18.358Z,96873.59
2023-04-28T18:06:46.206Z,96846.91
2023-04-28T18:09:15.476Z,96867.94
2023-04-28T18:11:43.276Z,96874.06
2023-04-28T18:14:11.048Z,96880.66
2023-04-28T18:16:39.066Z,96881.28
2023-04-28T18:19:06.982Z,96885.75
2023-04-28T18:21:35.146Z,96894.16
2023-04-28T18:24:02.954Z,96886.06
2023-04-28T18:26:32.132Z,96888.03
2023-04-28T18:28:59.918Z,96891.38
2023-04-28T18:31:27.869Z,96895.31
2023-04-28T18:33:55.691Z,96889.31
2023-04-28T18:36:23.504Z,96886.91
2023-04-28T18:38:51.282Z,96884.56
2023-04-28T18:41:19.756Z,96888.59
2023-04-28T18:43:48.964Z,96894.59
2023-04-28T18:46:16.866Z,96897.56
2023-04-28T18:48:44.861Z,96910.13
2023-04-28T18:51:12.703Z,96915.97
2023-04-28T18:53:40.511Z,96917.25
2023-04-28T18:56:08.266Z,96915.41
2023-04-28T18:58:37.132Z,96920.72
2023-04-28T19:01:06.364Z,96923.22
2023-04-28T19:03:34.289Z,96929.34
2023-04-28T19:06:02.114Z,96927.25
2023-04-28T19:08:29.978Z,96940.88
2023-04-28T19:10:58.792Z,96949.66
2023-04-28T19:13:26.670Z,96952.59
2023-04-28T19:15:56.246Z,96961.50
2023-04-28T19:18:25.496Z,96955.63
2023-04-28T19:21:00.733Z,96958.81
2023-04-28T19:23:28.878Z,96967.56
2023-04-28T19:25:57.608Z,96971.72
2023-04-28T19:28:26.198Z,96977.25
2023-04-28T19:30:54.492Z,96976.84
2023-04-28T19:33:26.206Z,96981.69
2023-04-28T19:35:57.233Z,96979.47
2023-04-28T19:38:25.153Z,96994.50
2023-04-28T19:40:59.818Z,97001.00
2023-04-28T19:43:27.742Z,97006.81
2023-04-28T19:45:55.532Z,97014.31
2023-04-28T19:48:23.395Z,97006.19
2023-04-28T19:50:51.303Z,97009.59
2023-04-28T19:53:20.520Z,96999.66
2023-04-28T19:55:48.357Z,97015.41
2023-04-28T19:58:16.339Z,97018.56
2023-04-28T20:00:45.354Z,97024.81
2023-04-28T20:03:14.819Z,97024.34
2023-04-28T20:05:42.945Z,97028.22
2023-04-28T20:08:10.926Z,97032.09
2023-04-28T20:10:40.114Z,97037.63
2023-04-28T20:13:08.066Z,97028.03
2023-04-28T20:15:36.248Z,97028.38
2023-04-28T20:18:04.185Z,97017.03
2023-04-28T20:20:31.993Z,97037.22
2023-04-28T20:22:59.730Z,97028.56
2023-04-28T20:25:27.903Z,97033.16
2023-04-28T20:27:57.114Z,97036.03
2023-04-28T20:30:25.249Z,97034.03
2023-04-28T20:32:53.026Z,97044.72
2023-04-28T20:35:22.886Z,97038.59
2023-04-28T20:37:50.614Z,97039.94
2023-04-28T20:40:18.637Z,97036.72
2023-04-28T20:42:46.346Z,97035.03
2023-04-28T20:45:15.573Z,97036.09
2023-04-28T20:47:43.629Z,97035.66
2023-04-28T20:50:12.427Z,97036.03
2023-04-28T20:52:40.215Z,97037.09
2023-04-28T20:55:09.558Z,97030.13
2023-04-28T20:57:37.314Z,97032.31
2023-04-28T21:00:08.008Z,97033.66
2023-04-28T21:02:37.965Z,97031.59
2023-04-28T21:05:06.307Z,97027.75
2023-04-28T21:07:34.092Z,97029.44
2023-04-28T21:10:01.883Z,97029.94
2023-04-28T21:12:29.650Z,97032.47
2023-04-28T21:14:59.834Z,97030.16
2023-04-28T21:17:27.643Z,97029.81
2023-04-28T21:19:57.467Z,97031.03
2023-04-28T21:22:26.153Z,97026.94
2023-04-28T21:24:54.886Z,97030.81
2023-04-28T21:27:22.716Z,97022.41
2023-04-28T21:29:51.259Z,97027.81
2023-04-28T21:32:19.907Z,97027.06
2023-04-28T21:34:49.101Z,97023.13
2023-04-28T21:37:18.482Z,97026.72
2023-04-28T21:39:47.063Z,97025.25
2023-04-28T21:42:15.142Z,97028.25
2023-04-28T21:44:42.910Z,97028.97
2023-04-28T21:47:10.786Z,97021.06
2023-04-28T21:49:38.865Z,97020.47
2023-04-28T21:52:06.683Z,97025.13
2023-04-28T21:54:35.946Z,97030.41
2023-04-28T21:57:04.065Z,97036.41
2023-04-28T21:59:31.919Z,97037.59
2023-04-28T22:02:00.076Z,97035.44
2023-04-28T22:04:28.835Z,97040.34
2023-04-28T22:06:57.424Z,97038.06
2023-04-28T22:09:25.874Z,97042.03
2023-04-28T22:11:55.090Z,97039.72
2023-04-28T22:14:39.455Z,97040.69
2023-04-28T22:17:09.519Z,97038.75
2023-04-28T22:19:37.397Z,97046.41
2023-04-28T22:22:05.498Z,97043.06
2023-04-28T22:24:33.616Z,97027.09
2023-04-28T22:27:03.380Z,97049.66
2023-04-28T22:29:31.321Z,97044.72
2023-04-28T22:31:59.922Z,97046.97
2023-04-28T22:34:27.934Z,97039.44
2023-04-28T22:36:55.695Z,97043.75
2023-04-28T22:39:25.125Z,97045.53
2023-04-28T22:41:53.419Z,97033.53
2023-04-28T22:44:22.791Z,97045.28
2023-04-28T22:46:50.593Z,97052.34
2023-04-28T22:49:24.393Z,97048.84
2023-04-28T22:51:52.352Z,97045.94
2023-04-28T22:54:20.122Z,97055.66
2023-04-28T22:56:48.134Z,97053.75
2023-04-28T22:59:16.046Z,97040.66
2023-04-28T23:01:45.313Z,97050.84
2023-04-28T23:04:13.652Z,97048.31
2023-04-28T23:06:41.718Z,97056.09
2023-04-28T23:09:10.373Z,97052.41
2023-04-28T23:11:38.544Z,97058.16
2023-04-28T23:14:06.424Z,97058.53
2023-04-28T23:16:34.320Z,97064.34
2023-04-28T23:19:03.747Z,97062.28
2023-04-28T23:21:32.046Z,97065.88
2023-04-28T23:23:59.772Z,97069.69
2023-04-28T23:26:27.874Z,97072.53
2023-04-28T23:28:55.891Z,97080.00
2023-04-28T23:31:23.861Z,97077.59
2023-04-28T23:33:52.001Z,97072.53
2023-04-28T23:36:21.374Z,97068.78
2023-04-28T23:38:49.329Z,97077.13
2023-04-28T23:41:17.057Z,97073.38
2023-04-28T23:43:44.808Z,97064.75
2023-04-28T23:46:12.615Z,97060.63
2023-04-28T23:48:40.402Z,97058.13
2023-04-28T23:51:08.248Z,97056.56
2023-04-28T23:53:37.323Z,97057.41
2023-04-28T23:56:05.544Z,97056.00
2023-04-28T23:58:33.275Z,97062.63
